createdAt,value
2023-01-17T00:01:46.581Z,5.45
2023-01-17T00:04:32.125Z,5.21
2023-01-17T00:07:17.408Z,5.29
2023-01-17T00:09:53.022Z,5.50
2023-01-17T00:12:28.151Z,5.48
2023-01-17T00:14:56.197Z,5.24
2023-01-17T00:17:23.838Z,4.79
2023-01-17T00:20:08.992Z,4.93
2023-01-17T00:22:54.113Z,4.88
2023-01-17T00:25:42.335Z,5.00
2023-01-17T00:28:08.793Z,5.08
2023-01-17T00:30:35.484Z,5.11
2023-01-17T00:33:01.933Z,4.92
2023-01-17T00:35:29.737Z,4.81
2023-01-17T00:38:07.391Z,4.95
2023-01-17T00:40:35.241Z,4.67
2023-01-17T00:43:20.573Z,5.31
2023-01-17T00:46:06.359Z,4.89
2023-01-17T00:48:52.650Z,5.04
2023-01-17T00:51:37.784Z,5.20
2023-01-17T00:54:23.190Z,4.51
2023-01-17T00:57:08.774Z,4.98
2023-01-17T00:59:54.315Z,5.06
2023-01-17T01:02:39.430Z,5.06
2023-01-17T01:05:25.069Z,4.89
2023-01-17T01:08:10.251Z,4.81
2023-01-17T01:10:55.420Z,4.93
2023-01-17T01:13:44.652Z,5.30
2023-01-17T01:16:30.859Z,5.09
2023-01-17T01:19:17.170Z,4.97
2023-01-17T01:22:02.348Z,4.70
2023-01-17T01:24:47.720Z,4.85
2023-01-17T01:27:33.137Z,4.80
2023-01-17T01:30:18.502Z,5.06
2023-01-17T01:33:03.436Z,5.06
2023-01-17T01:35:29.969Z,4.51
2023-01-17T01:37:57.307Z,5.28
2023-01-17T01:40:23.840Z,4.56
2023-01-17T01:42:56.437Z,5.25
2023-01-17T01:45:31.399Z,4.90
2023-01-17T01:48:03.253Z,4.85
2023-01-17T01:50:30.745Z,4.67
2023-01-17T01:52:59.311Z,5.12
2023-01-17T01:55:35.046Z,5.04
2023-01-17T01:58:11.416Z,4.97
2023-01-17T02:00:40.968Z,4.80
2023-01-17T02:03:17.908Z,4.51
2023-01-17T02:05:44.558Z,4.29
2023-01-17T02:08:13.886Z,4.94
2023-01-17T02:10:41.935Z,4.80
2023-01-17T02:13:09.367Z,4.81
2023-01-17T02:15:54.348Z,4.77
2023-01-17T02:18:21.245Z,4.79
2023-01-17T02:20:58.684Z,4.46
2023-01-17T02:23:49.579Z,4.90
2023-01-17T02:26:30.511Z,4.53
2023-01-17T02:29:18.250Z,4.86
2023-01-17T02:31:49.377Z,4.54
2023-01-17T02:34:29.195Z,4.49
2023-01-17T02:37:14.071Z,4.67
2023-01-17T02:39:47.331Z,4.91
2023-01-17T02:42:16.899Z,4.92
2023-01-17T02:44:44.305Z,4.91
2023-01-17T02:47:24.074Z,4.56
2023-01-17T02:49:56.156Z,4.44
2023-01-17T02:52:27.215Z,3.88
2023-01-17T02:55:22.650Z,3.61
2023-01-17T02:58:06.866Z,3.70
2023-01-17T03:01:19.135Z,3.47
2023-01-17T03:03:55.277Z,3.58
2023-01-17T03:06:47.258Z,3.54
2023-01-17T03:09:15.202Z,3.54
2023-01-17T03:11:42.411Z,3.04
2023-01-17T03:14:08.924Z,3.34
2023-01-17T03:16:35.638Z,3.29
2023-01-17T03:19:02.716Z,3.48
2023-01-17T03:21:29.408Z,3.45
2023-01-17T03:23:55.898Z,3.45
2023-01-17T03:26:22.384Z,3.64
2023-01-17T03:28:48.970Z,3.23
2023-01-17T03:31:16.622Z,3.16
2023-01-17T03:33:43.209Z,3.45
2023-01-17T03:36:09.911Z,3.45
2023-01-17T03:38:37.395Z,3.47
2023-01-17T03:41:04.575Z,2.70
2023-01-17T03:43:31.067Z,3.37
2023-01-17T03:46:05.849Z,3.30
2023-01-17T03:48:32.720Z,2.78
2023-01-17T03:50:59.592Z,2.85
2023-01-17T03:53:26.101Z,3.00
2023-01-17T03:55:52.807Z,2.57
2023-01-17T03:58:20.071Z,2.26
2023-01-17T04:00:46.982Z,2.37
2023-01-17T04:03:13.502Z,2.54
2023-01-17T04:05:40.094Z,2.39
2023-01-17T04:08:07.320Z,2.45
2023-01-17T04:10:33.873Z,2.04
2023-01-17T04:13:00.677Z,2.26
2023-01-17T04:15:27.192Z,2.47
2023-01-17T04:17:53.750Z,2.24
2023-01-17T04:20:32.091Z,1.95
2023-01-17T04:22:58.575Z,2.27
2023-01-17T04:25:25.720Z,2.33
2023-01-17T04:27:53.246Z,2.18
2023-01-17T04:30:20.134Z,2.65
2023-01-17T04:32:46.675Z,2.87
2023-01-17T04:35:13.223Z,2.74
2023-01-17T04:37:40.437Z,2.62
2023-01-17T04:40:07.807Z,2.80
2023-01-17T04:42:34.334Z,3.13
2023-01-17T04:45:00.913Z,3.15
2023-01-17T04:47:27.783Z,2.83
2023-01-17T04:49:54.295Z,2.78
2023-01-17T04:52:20.908Z,2.99
2023-01-17T04:54:51.210Z,2.96
2023-01-17T04:57:18.096Z,3.33
2023-01-17T04:59:45.289Z,3.57
2023-01-17T05:02:12.532Z,3.27
2023-01-17T05:04:39.105Z,3.01
2023-01-17T05:07:06.113Z,2.94
2023-01-17T05:09:32.739Z,3.27
2023-01-17T05:11:59.256Z,3.42
2023-01-17T05:14:26.339Z,3.73
2023-01-17T05:16:56.619Z,3.42
2023-01-17T05:19:23.917Z,3.65
2023-01-17T05:21:50.659Z,2.91
2023-01-17T05:24:17.195Z,3.19
2023-01-17T05:26:43.828Z,3.45
2023-01-17T05:29:10.657Z,3.22
2023-01-17T05:31:37.431Z,3.55
2023-01-17T05:34:04.231Z,3.57
2023-01-17T05:36:30.827Z,3.52
2023-01-17T05:38:57.537Z,3.94
2023-01-17T05:41:24.041Z,3.61
2023-01-17T05:43:50.668Z,3.37
2023-01-17T05:46:18.060Z,3.59
2023-01-17T05:48:44.721Z,3.56
2023-01-17T05:51:11.227Z,3.63
2023-01-17T05:53:37.763Z,3.47
2023-01-17T05:56:04.419Z,3.32
2023-01-17T05:58:30.950Z,3.24
2023-01-17T06:00:57.550Z,3.43
2023-01-17T06:03:24.311Z,3.57
2023-01-17T06:05:50.941Z,3.43
2023-01-17T06:08:17.663Z,3.30
2023-01-17T06:10:44.137Z,3.47
2023-01-17T06:13:13.573Z,3.66
2023-01-17T06:15:40.993Z,4.00
2023-01-17T06:18:17.659Z,4.12
2023-01-17T06:20:44.824Z,3.99
2023-01-17T06:23:12.877Z,4.00
2023-01-17T06:25:44.822Z,3.87
2023-01-17T06:28:12.624Z,3.68
2023-01-17T06:30:39.492Z,3.55
2023-01-17T06:33:06.274Z,3.91
2023-01-17T06:35:32.985Z,4.02
2023-01-17T06:38:00.528Z,3.65
2023-01-17T06:40:28.822Z,3.89
2023-01-17T06:43:02.913Z,3.99
2023-01-17T06:45:30.743Z,3.46
2023-01-17T06:47:59.141Z,3.73
2023-01-17T06:50:28.690Z,3.73
2023-01-17T06:52:57.364Z,3.44
2023-01-17T06:55:24.318Z,3.52
2023-01-17T06:57:51.120Z,3.29
2023-01-17T07:00:18.000Z,2.95
2023-01-17T07:02:47.844Z,3.56
2023-01-17T07:05:16.268Z,3.17
2023-01-17T07:07:44.792Z,3.72
2023-01-17T07:10:13.042Z,2.99
2023-01-17T07:12:39.730Z,3.16
2023-01-17T07:15:07.252Z,3.40
2023-01-17T07:17:34.452Z,3.15
2023-01-17T07:20:01.031Z,3.62
2023-01-17T07:22:27.805Z,3.25
2023-01-17T07:24:58.480Z,3.59
2023-01-17T07:27:25.952Z,3.70
2023-01-17T07:29:54.204Z,3.72
2023-01-17T07:32:21.002Z,3.55
2023-01-17T07:34:47.496Z,3.48
2023-01-17T07:37:15.317Z,3.51
2023-01-17T07:39:42.137Z,3.68
2023-01-17T07:42:09.116Z,3.57
2023-01-17T07:44:35.649Z,4.10
2023-01-17T07:47:02.454Z,4.35
2023-01-17T07:49:29.051Z,4.29
2023-01-17T07:51:55.603Z,3.88
2023-01-17T07:54:22.178Z,4.26
2023-01-17T07:56:48.986Z,4.59
2023-01-17T07:59:15.590Z,3.46
2023-01-17T08:01:42.219Z,3.44
2023-01-17T08:04:09.388Z,3.51
2023-01-17T08:06:37.910Z,3.48
2023-01-17T08:09:05.022Z,3.57
2023-01-17T08:11:31.558Z,3.62
2023-01-17T08:13:59.421Z,4.35
2023-01-17T08:16:27.070Z,4.37
2023-01-17T08:18:54.832Z,4.38
2023-01-17T08:21:21.700Z,4.52
2023-01-17T08:23:49.065Z,4.28
2023-01-17T08:26:21.487Z,3.97
2023-01-17T08:29:00.424Z,3.95
2023-01-17T08:31:31.488Z,4.38
2023-01-17T08:33:58.357Z,4.87
2023-01-17T08:36:25.894Z,5.15
2023-01-17T08:38:53.076Z,5.44
2023-01-17T08:41:23.567Z,4.97
2023-01-17T08:43:51.403Z,4.49
2023-01-17T08:46:18.301Z,4.12
2023-01-17T08:48:45.073Z,4.28
2023-01-17T08:51:12.579Z,4.48
2023-01-17T08:53:40.658Z,4.54
2023-01-17T08:56:07.902Z,4.47
2023-01-17T08:58:35.840Z,4.69
2023-01-17T09:01:03.703Z,4.26
2023-01-17T09:03:31.578Z,3.94
2023-01-17T09:06:07.484Z,4.26
2023-01-17T09:08:34.640Z,4.41
2023-01-17T09:11:09.856Z,4.16
2023-01-17T09:13:37.174Z,4.32
2023-01-17T09:16:04.506Z,3.95
2023-01-17T09:18:32.064Z,4.13
2023-01-17T09:21:01.474Z,3.67
2023-01-17T09:23:30.157Z,4.37
2023-01-17T09:25:58.574Z,3.56
2023-01-17T09:28:26.476Z,4.56
2023-01-17T09:30:53.482Z,4.74
2023-01-17T09:33:20.780Z,4.56
2023-01-17T09:35:47.662Z,5.17
2023-01-17T09:38:14.612Z,4.73
2023-01-17T09:40:48.614Z,5.10
2023-01-17T09:43:18.201Z,4.51
2023-01-17T09:45:45.073Z,4.62
2023-01-17T09:48:17.796Z,5.61
2023-01-17T09:50:50.617Z,9.16
2023-01-17T09:53:20.766Z,10.96
2023-01-17T09:55:54.645Z,10.11
2023-01-17T09:58:34.310Z,7.83
2023-01-17T10:01:10.187Z,7.17
2023-01-17T10:03:39.737Z,6.02
2023-01-17T10:07:03.443Z,5.48
2023-01-17T10:09:29.909Z,6.32
2023-01-17T10:12:11.427Z,5.82
2023-01-17T10:15:07.106Z,5.59
2023-01-17T10:17:54.393Z,5.60
2023-01-17T10:20:33.918Z,5.95
2023-01-17T10:23:26.864Z,5.84
2023-01-17T10:25:56.479Z,5.30
2023-01-17T10:28:22.982Z,5.76
2023-01-17T10:30:51.255Z,5.91
2023-01-17T10:33:23.193Z,6.15
2023-01-17T10:36:03.735Z,5.42
2023-01-17T10:38:37.873Z,6.02
2023-01-17T10:41:08.645Z,5.87
2023-01-17T10:43:53.424Z,6.12
2023-01-17T10:46:28.478Z,6.47
2023-01-17T10:48:55.452Z,6.23
2023-01-17T10:51:50.433Z,6.39
2023-01-17T10:54:39.919Z,9.40
2023-01-17T10:57:14.798Z,11.15
2023-01-17T10:59:41.405Z,14.68
2023-01-17T11:02:35.963Z,19.12
2023-01-17T11:05:05.573Z,19.04
2023-01-17T11:07:32.186Z,19.24
2023-01-17T11:09:59.237Z,18.87
2023-01-17T11:12:45.285Z,19.59
2023-01-17T11:15:11.916Z,21.88
2023-01-17T11:17:43.410Z,26.42
2023-01-17T11:20:20.019Z,25.93
2023-01-17T11:23:02.997Z,21.92
2023-01-17T11:25:33.993Z,22.90
2023-01-17T11:28:06.698Z,20.28
2023-01-17T11:30:33.691Z,19.02
2023-01-17T11:33:04.301Z,17.98
2023-01-17T11:35:31.435Z,19.03
2023-01-17T11:38:19.002Z,18.71
2023-01-17T11:40:46.947Z,14.72
2023-01-17T11:43:18.539Z,13.27
2023-01-17T11:45:46.546Z,11.27
2023-01-17T11:48:17.535Z,10.19
2023-01-17T11:50:59.520Z,9.58
2023-01-17T11:53:33.730Z,8.97
2023-01-17T11:56:23.102Z,8.33
2023-01-17T11:58:51.008Z,8.45
2023-01-17T12:01:27.204Z,8.95
2023-01-17T12:04:08.651Z,9.08
2023-01-17T12:06:56.236Z,9.47
2023-01-17T12:09:42.828Z,9.43
2023-01-17T12:12:43.395Z,11.42
2023-01-17T12:15:18.993Z,9.80
2023-01-17T12:18:08.994Z,12.38
2023-01-17T12:21:02.925Z,15.63
2023-01-17T12:23:54.866Z,16.71
2023-01-17T12:26:32.573Z,14.55
2023-01-17T12:29:30.387Z,13.44
2023-01-17T12:32:19.534Z,11.03
2023-01-17T12:34:57.944Z,10.60
2023-01-17T12:37:31.750Z,10.51
2023-01-17T12:40:22.173Z,10.65
2023-01-17T12:42:54.672Z,10.18
2023-01-17T12:45:32.115Z,10.02
2023-01-17T12:48:02.979Z,9.20
2023-01-17T12:50:37.158Z,9.11
2023-01-17T12:53:25.584Z,8.38
2023-01-17T12:55:55.440Z,8.43
2023-01-17T12:58:25.337Z,8.49
2023-01-17T13:01:20.449Z,9.16
2023-01-17T13:04:06.234Z,9.45
2023-01-17T13:06:40.699Z,9.15
2023-01-17T13:09:09.784Z,8.89
2023-01-17T13:11:43.705Z,9.03
2023-01-17T13:14:10.509Z,9.08
2023-01-17T13:16:44.599Z,9.78
2023-01-17T13:19:18.237Z,8.92
2023-01-17T13:21:46.350Z,8.08
2023-01-17T13:24:18.719Z,9.90
2023-01-17T13:27:06.613Z,9.08
2023-01-17T13:30:11.067Z,8.70
2023-01-17T13:32:46.964Z,7.74
2023-01-17T13:35:13.420Z,7.97
2023-01-17T13:38:17.544Z,8.37
2023-01-17T13:41:01.378Z,8.29
2023-01-17T13:43:36.053Z,7.78
2023-01-17T13:46:03.717Z,8.65
2023-01-17T13:48:32.223Z,7.82
2023-01-17T13:51:00.600Z,8.37
2023-01-17T13:53:39.188Z,7.35
2023-01-17T13:56:26.493Z,7.88
2023-01-17T13:58:57.626Z,8.31
2023-01-17T14:01:24.541Z,8.39
2023-01-17T14:03:51.381Z,7.96
2023-01-17T14:06:36.235Z,8.34
2023-01-17T14:09:02.695Z,8.64
2023-01-17T14:11:33.715Z,8.24
2023-01-17T14:14:39.400Z,8.56
2023-01-17T14:17:20.291Z,8.04
2023-01-17T14:19:48.631Z,7.81
2023-01-17T14:22:21.247Z,8.43
2023-01-17T14:25:02.027Z,7.58
2023-01-17T14:27:31.844Z,7.58
2023-01-17T14:30:00.043Z,7.75
2023-01-17T14:32:30.288Z,6.83
2023-01-17T14:34:57.373Z,7.16
2023-01-17T14:37:32.975Z,7.10
2023-01-17T14:40:00.537Z,6.81
2023-01-17T14:42:29.683Z,7.25
2023-01-17T14:45:02.139Z,7.68
2023-01-17T14:47:31.900Z,7.70
2023-01-17T14:50:17.418Z,6.99
2023-01-17T14:52:46.636Z,7.08
2023-01-17T14:55:18.832Z,6.81
2023-01-17T14:57:57.898Z,6.56
2023-01-17T15:00:25.597Z,6.53
2023-01-17T15:02:53.153Z,6.41
2023-01-17T15:05:21.451Z,6.17
2023-01-17T15:07:52.910Z,5.82
2023-01-17T15:10:26.322Z,5.93
2023-01-17T15:12:53.073Z,5.81
2023-01-17T15:15:32.064Z,6.03
2023-01-17T15:18:08.564Z,6.41
2023-01-17T15:20:36.112Z,5.85
2023-01-17T15:23:02.988Z,6.60
2023-01-17T15:25:29.479Z,6.55
2023-01-17T15:27:56.273Z,6.19
2023-01-17T15:30:25.093Z,6.33
2023-01-17T15:32:52.516Z,6.32
2023-01-17T15:35:19.449Z,6.52
2023-01-17T15:37:51.959Z,6.59
2023-01-17T15:40:23.509Z,6.35
2023-01-17T15:42:58.678Z,6.75
2023-01-17T15:45:29.643Z,6.83
2023-01-17T15:47:56.129Z,6.75
2023-01-17T15:50:30.152Z,7.00
2023-01-17T15:53:05.363Z,6.90
2023-01-17T15:55:39.643Z,6.97
2023-01-17T15:58:23.187Z,6.94
2023-01-17T16:00:49.710Z,6.52
2023-01-17T16:03:19.207Z,6.73
2023-01-17T16:05:46.820Z,6.81
2023-01-17T16:08:15.390Z,6.67
2023-01-17T16:10:43.101Z,6.69
2023-01-17T16:13:11.688Z,6.51
2023-01-17T16:15:38.378Z,6.59
2023-01-17T16:18:07.899Z,6.66
2023-01-17T16:20:37.401Z,6.23
2023-01-17T16:23:03.910Z,6.38
2023-01-17T16:25:32.709Z,6.34
2023-01-17T16:27:59.623Z,5.88
2023-01-17T16:30:26.692Z,6.06
2023-01-17T16:32:53.702Z,5.90
2023-01-17T16:35:22.215Z,5.83
2023-01-17T16:37:54.093Z,5.88
2023-01-17T16:40:22.986Z,5.80
2023-01-17T16:42:49.757Z,6.08
2023-01-17T16:45:17.567Z,6.18
2023-01-17T16:47:46.192Z,6.08
2023-01-17T16:50:14.753Z,6.15
2023-01-17T16:52:41.265Z,6.13
2023-01-17T16:55:12.078Z,6.00
2023-01-17T16:57:38.942Z,5.60
2023-01-17T17:00:06.365Z,6.05
2023-01-17T17:02:33.077Z,6.10
2023-01-17T17:04:59.898Z,5.93
2023-01-17T17:07:26.399Z,5.81
2023-01-17T17:09:52.955Z,5.93
2023-01-17T17:12:19.469Z,5.98
2023-01-17T17:14:45.957Z,5.81
2023-01-17T17:17:12.579Z,5.77
2023-01-17T17:19:39.684Z,5.35
2023-01-17T17:22:06.661Z,5.23
2023-01-17T17:24:33.311Z,5.17
2023-01-17T17:26:59.828Z,5.17
2023-01-17T17:29:26.344Z,5.20
2023-01-17T17:31:53.806Z,5.37
2023-01-17T17:34:20.985Z,5.30
2023-01-17T17:36:47.431Z,5.07
2023-01-17T17:39:17.442Z,5.36
2023-01-17T17:41:45.592Z,5.06
2023-01-17T17:44:12.477Z,5.03
2023-01-17T17:46:39.080Z,5.31
2023-01-17T17:49:08.445Z,5.36
2023-01-17T17:51:39.492Z,5.33
2023-01-17T17:54:11.416Z,5.15
2023-01-17T17:56:38.606Z,5.40
2023-01-17T17:59:07.183Z,5.28
2023-01-17T18:01:33.866Z,4.90
2023-01-17T18:04:01.840Z,4.50
2023-01-17T18:06:28.621Z,4.84
2023-01-17T18:08:55.057Z,5.04
2023-01-17T18:11:25.878Z,4.93
2023-01-17T18:13:54.823Z,4.97
2023-01-17T18:16:31.116Z,5.01
2023-01-17T18:18:58.911Z,4.97
2023-01-17T18:21:31.683Z,5.10
2023-01-17T18:24:00.419Z,4.96
2023-01-17T18:26:31.979Z,4.86
2023-01-17T18:28:59.718Z,4.57
2023-01-17T18:31:27.556Z,4.19
2023-01-17T18:33:55.512Z,4.59
2023-01-17T18:36:23.465Z,4.60
2023-01-17T18:38:51.596Z,4.76
2023-01-17T18:41:23.456Z,4.77
2023-01-17T18:43:50.396Z,4.70
2023-01-17T18:46:17.949Z,4.59
2023-01-17T18:48:44.697Z,4.80
2023-01-17T18:51:13.254Z,4.70
2023-01-17T18:53:41.012Z,5.00
2023-01-17T18:56:09.939Z,4.68
2023-01-17T18:58:38.784Z,4.37
2023-01-17T19:01:11.637Z,4.48
2023-01-17T19:03:40.173Z,4.84
2023-01-17T19:06:08.265Z,4.79
2023-01-17T19:08:35.538Z,4.93
2023-01-17T19:11:04.364Z,4.84
2023-01-17T19:13:35.613Z,5.19
2023-01-17T19:16:03.723Z,5.19
2023-01-17T19:18:30.970Z,5.08
2023-01-17T19:21:08.865Z,4.93
2023-01-17T19:23:36.123Z,4.97
2023-01-17T19:26:04.242Z,5.14
2023-01-17T19:28:30.854Z,5.01
2023-01-17T19:31:10.990Z,4.70
2023-01-17T19:33:39.158Z,4.51
2023-01-17T19:36:08.823Z,4.80
2023-01-17T19:38:36.611Z,4.40
2023-01-17T19:41:10.565Z,4.33
2023-01-17T19:43:37.708Z,4.36
2023-01-17T19:46:04.482Z,4.41
2023-01-17T19:48:31.384Z,4.26
2023-01-17T19:51:07.318Z,4.34
2023-01-17T19:53:35.730Z,4.19
2023-01-17T19:56:14.583Z,3.95
2023-01-17T19:58:41.747Z,3.89
2023-01-17T20:01:09.730Z,4.07
2023-01-17T20:03:37.621Z,4.18
2023-01-17T20:06:09.007Z,4.36
2023-01-17T20:08:35.820Z,4.38
2023-01-17T20:11:08.299Z,4.50
2023-01-17T20:13:34.935Z,4.27
2023-01-17T20:16:03.456Z,4.16
2023-01-17T20:18:30.354Z,3.99
2023-01-17T20:21:02.878Z,3.97
2023-01-17T20:23:32.134Z,4.05
2023-01-17T20:26:03.425Z,4.15
2023-01-17T20:28:34.142Z,4.13
2023-01-17T20:31:09.051Z,3.53
2023-01-17T20:33:36.389Z,3.46
2023-01-17T20:36:10.471Z,3.64
2023-01-17T20:38:44.667Z,3.57
2023-01-17T20:41:22.855Z,3.79
2023-01-17T20:43:54.248Z,3.60
2023-01-17T20:46:22.166Z,3.85
2023-01-17T20:48:50.679Z,4.01
2023-01-17T20:51:18.181Z,3.92
2023-01-17T20:53:45.820Z,3.58
2023-01-17T20:56:14.072Z,3.32
2023-01-17T20:58:41.203Z,3.42
2023-01-17T21:01:09.331Z,3.36
2023-01-17T21:03:37.546Z,3.50
2023-01-17T21:06:09.889Z,3.73
2023-01-17T21:08:38.474Z,3.65
2023-01-17T21:11:06.430Z,3.60
2023-01-17T21:13:33.225Z,3.52
2023-01-17T21:15:59.758Z,3.45
2023-01-17T21:18:27.505Z,3.46
2023-01-17T21:20:54.110Z,3.52
2023-01-17T21:23:20.790Z,3.56
2023-01-17T21:25:55.639Z,3.94
2023-01-17T21:28:24.215Z,3.87
2023-01-17T21:30:51.173Z,3.95
2023-01-17T21:33:18.236Z,4.17
2023-01-17T21:35:45.205Z,4.02
2023-01-17T21:38:12.786Z,3.90
2023-01-17T21:40:40.258Z,4.11
2023-01-17T21:43:07.545Z,4.03
2023-01-17T21:45:38.358Z,4.22
2023-01-17T21:48:06.696Z,4.37
2023-01-17T21:50:34.073Z,3.78
2023-01-17T21:53:00.733Z,3.89
2023-01-17T21:55:45.825Z,4.13
2023-01-17T21:58:35.729Z,4.37
2023-01-17T22:01:17.663Z,4.29
2023-01-17T22:03:50.705Z,4.60
2023-01-17T22:06:17.827Z,4.40
2023-01-17T22:08:44.508Z,4.29
2023-01-17T22:11:13.544Z,4.53
2023-01-17T22:13:42.010Z,4.41
2023-01-17T22:16:11.405Z,4.31
2023-01-17T22:18:39.199Z,4.42
2023-01-17T22:21:16.918Z,4.37
2023-01-17T22:23:57.884Z,4.36
2023-01-17T22:26:27.394Z,4.34
2023-01-17T22:28:54.715Z,4.29
2023-01-17T22:31:26.393Z,4.40
2023-01-17T22:33:58.829Z,4.17
2023-01-17T22:36:26.157Z,3.88
2023-01-17T22:38:52.821Z,4.07
2023-01-17T22:41:24.732Z,3.67
2023-01-17T22:43:53.348Z,3.84
2023-01-17T22:46:25.305Z,4.01
2023-01-17T22:48:52.973Z,3.62
2023-01-17T22:51:20.889Z,3.51
2023-01-17T22:53:49.969Z,3.62
2023-01-17T22:56:18.452Z,3.88
2023-01-17T22:58:45.701Z,3.95
2023-01-17T23:01:14.161Z,3.46
2023-01-17T23:03:41.853Z,3.40
2023-01-17T23:06:16.675Z,3.18
2023-01-17T23:08:45.299Z,3.26
2023-01-17T23:11:39.682Z,3.23
2023-01-17T23:14:15.854Z,2.90
2023-01-17T23:17:06.555Z,2.04
2023-01-17T23:19:37.641Z,2.31
2023-01-17T23:22:15.694Z,2.27
2023-01-17T23:24:46.822Z,2.62
2023-01-17T23:27:36.527Z,2.40
2023-01-17T23:30:13.314Z,2.88
2023-01-17T23:32:43.233Z,2.85
2023-01-17T23:35:09.835Z,3.06
2023-01-17T23:37:54.892Z,2.73
2023-01-17T23:40:21.954Z,3.22
2023-01-17T23:43:07.440Z,3.39
2023-01-17T23:45:38.163Z,3.36
2023-01-17T23:48:09.325Z,3.57
2023-01-17T23:50:37.781Z,3.38
2023-01-17T23:53:07.229Z,3.50
2023-01-17T23:55:38.293Z,3.63
2023-01-17T23:58:06.585Z,3.83
